Terminal Aerodrome Forecast
Issued by NWS Charleston, WV

Current Version | Previous Version | Text Only | Print | Product List | Glossary Off
Versions: 1 2 3 4 5 6 7 8 9 10 11 12 13 14 15 16 17 18 19 20 21 22

000
FTUS41 KRLX 270546
TAFPKB
TAF
KPKB 270546Z 2706/2806 VRB03KT 1/2SM FG BKN002 OVC070
      TEMPO 2706/2710 4SM SHRA BR SCT002 BKN070
     FM271000 13005KT 3SM SHRA BR VCTS OVC060CB
     FM271200 15005KT 2SM SHRA BR VCTS OVC015CB
     FM271400 18007KT 4SM SHRA BR VCTS OVC015CB
     FM271600 21008KT P6SM VCTS BKN025CB
     FM272000 25010G15KT P6SM BKN025=

USA.gov is the U.S. government's official web portal to all federal, state and local government web resources and services.